createdAt,value
2019-02-15T15:02:11.908Z,11.70
2019-02-15T15:07:15.626Z,11.10
2019-02-15T15:12:19.433Z,10.70
2019-02-15T15:17:23.160Z,10.50
2019-02-15T15:22:26.868Z,10.30
2019-02-15T15:27:30.624Z,10.20
2019-02-15T15:32:34.329Z,10.20
2019-02-15T15:37:38.106Z,10.10
2019-02-15T15:42:41.812Z,10.00
2019-02-15T15:47:45.927Z,10.10
2019-02-15T15:52:49.905Z,10.00
2019-02-15T15:57:53.631Z,9.90
2019-02-15T16:02:57.331Z,9.90
2019-02-15T16:08:01.113Z,9.80
2019-02-15T16:13:05.137Z,9.70
2019-02-15T16:18:08.877Z,9.60
2019-02-15T16:23:12.837Z,9.50
2019-02-15T16:28:16.546Z,9.40
2019-02-15T16:33:20.291Z,9.20
2019-02-15T16:38:23.993Z,9.10
2019-02-15T16:43:27.760Z,8.90
2019-02-15T16:48:31.448Z,8.70
2019-02-15T16:53:35.160Z,8.60
2019-02-15T16:58:39.102Z,8.40
2019-02-15T17:03:42.816Z,8.30
2019-02-15T17:08:46.537Z,8.10
2019-02-15T17:13:50.278Z,8.00
2019-02-15T17:18:54.023Z,7.80
2019-02-15T17:23:57.744Z,7.60
2019-02-15T17:29:01.459Z,7.40
2019-02-15T17:34:05.487Z,7.10
2019-02-15T17:39:09.304Z,7.00
2019-02-15T17:44:13.009Z,6.80
2019-02-15T17:49:16.973Z,6.70
2019-02-15T17:54:20.670Z,6.50
2019-02-15T17:59:24.376Z,6.30
2019-02-15T18:04:28.385Z,6.20
2019-02-15T18:09:32.448Z,6.00
2019-02-15T18:14:36.328Z,5.90
2019-02-15T18:19:47.034Z,5.80
2019-02-15T18:24:45.451Z,5.70
2019-02-15T18:29:49.227Z,5.60
2019-02-15T18:34:52.939Z,5.40
2019-02-15T18:39:56.664Z,5.30
2019-02-15T18:45:00.382Z,5.10
2019-02-15T18:50:04.314Z,5.00
2019-02-15T18:55:08.933Z,4.80
2019-02-15T19:00:14.695Z,4.70
2019-02-15T19:05:18.386Z,4.50
2019-02-15T19:10:22.186Z,4.50
2019-02-15T19:15:25.941Z,4.30
2019-02-15T19:20:30.157Z,4.20
2019-02-15T19:25:33.860Z,4.10
2019-02-15T19:30:38.237Z,4.00
2019-02-15T19:35:42.103Z,3.90
2019-02-15T19:40:45.969Z,3.90
2019-02-15T19:45:51.675Z,3.80
2019-02-15T19:50:55.933Z,3.70
2019-02-15T19:56:00.142Z,3.60
2019-02-15T20:01:03.976Z,3.60
2019-02-15T20:06:07.841Z,3.50
2019-02-15T20:11:11.631Z,3.40
2019-02-15T20:16:15.501Z,3.30
2019-02-15T20:21:19.385Z,3.30
2019-02-15T20:26:23.369Z,3.20
2019-02-15T20:31:27.635Z,3.20
2019-02-15T20:36:31.813Z,3.10
2019-02-15T20:41:35.740Z,3.00
2019-02-15T20:46:40.082Z,2.90
2019-02-15T20:51:44.249Z,2.80
2019-02-15T20:56:48.604Z,2.80
2019-02-15T21:01:52.501Z,2.80
2019-02-15T21:06:56.305Z,2.70
2019-02-15T21:12:00.440Z,2.60
2019-02-15T21:17:05.761Z,2.60
2019-02-15T21:22:09.793Z,2.60
2019-02-15T21:27:14.097Z,2.50
2019-02-15T21:32:20.680Z,2.50
2019-02-15T21:37:26.768Z,2.50
2019-02-15T21:42:32.486Z,2.50
2019-02-15T21:47:36.202Z,2.40
2019-02-15T21:52:44.043Z,2.40
2019-02-15T21:57:45.516Z,2.30
2019-02-15T22:02:49.216Z,2.30
2019-02-15T22:07:53.951Z,2.30
2019-02-15T22:12:57.619Z,2.20
2019-02-15T22:18:01.365Z,2.10
2019-02-15T22:23:05.057Z,2.10
2019-02-15T22:28:08.750Z,2.10
2019-02-15T22:33:12.456Z,2.00
2019-02-15T22:38:16.140Z,2.00
2019-02-15T22:43:21.843Z,2.00
2019-02-15T22:48:25.533Z,2.00
2019-02-15T22:53:29.224Z,2.00
2019-02-15T22:58:33.014Z,1.90
2019-02-15T23:03:36.764Z,1.90
2019-02-15T23:08:40.453Z,1.90
2019-02-15T23:13:44.140Z,1.90
2019-02-15T23:18:47.826Z,1.80
2019-02-15T23:23:51.526Z,1.80
2019-02-15T23:28:55.218Z,1.80
2019-02-15T23:33:58.909Z,1.80
2019-02-15T23:39:02.764Z,1.70
2019-02-15T23:44:06.801Z,1.70
2019-02-15T23:49:10.486Z,1.70
2019-02-15T23:54:14.179Z,1.70
2019-02-15T23:59:17.874Z,1.60
